createdAt,value
2019-04-10T00:02:27.896Z,12.33
2019-04-10T00:05:05.232Z,10.53
2019-04-10T00:07:37.515Z,11.50
2019-04-10T00:10:09.579Z,10.27
2019-04-10T00:12:40.334Z,11.83
2019-04-10T00:15:10.320Z,9.47
2019-04-10T00:17:40.944Z,12.20
2019-04-10T00:20:10.576Z,11.23
2019-04-10T00:22:40.522Z,8.50
2019-04-10T00:25:12.722Z,9.87
2019-04-10T00:27:47.363Z,10.50
2019-04-10T00:30:18.672Z,11.83
2019-04-10T00:32:54.420Z,11.27
2019-04-10T00:35:25.561Z,12.17
2019-04-10T00:37:57.529Z,12.07
2019-04-10T00:40:31.353Z,10.80
2019-04-10T00:43:02.299Z,11.80
2019-04-10T00:45:32.001Z,11.40
2019-04-10T00:48:01.648Z,13.57
2019-04-10T00:50:32.668Z,13.03
2019-04-10T00:53:16.993Z,13.20
2019-04-10T00:55:46.811Z,12.63
2019-04-10T00:58:16.238Z,13.17
2019-04-10T01:00:45.533Z,13.50
2019-04-10T01:03:35.783Z,12.27
2019-04-10T01:06:07.982Z,13.13
2019-04-10T01:08:37.209Z,11.93
2019-04-10T01:11:06.647Z,13.00
2019-04-10T01:13:36.896Z,13.37
2019-04-10T01:16:07.148Z,12.27
2019-04-10T01:18:37.328Z,11.97
2019-04-10T01:21:11.015Z,12.23
2019-04-10T01:23:41.644Z,13.17
2019-04-10T01:26:12.734Z,12.30
2019-04-10T01:28:42.949Z,11.83
2019-04-10T01:31:14.968Z,12.90
2019-04-10T01:33:47.406Z,12.40
2019-04-10T01:36:18.598Z,12.80
2019-04-10T01:38:49.437Z,9.97
2019-04-10T01:41:20.175Z,10.83
2019-04-10T01:43:52.029Z,11.17
2019-04-10T01:46:22.200Z,12.27
2019-04-10T01:48:51.636Z,11.23
2019-04-10T01:51:21.282Z,12.23
2019-04-10T01:53:50.925Z,12.13
2019-04-10T01:56:28.578Z,12.03
2019-04-10T01:58:53.466Z,12.00
2019-04-10T02:01:29.431Z,12.47
2019-04-10T02:03:58.603Z,8.93
2019-04-10T02:06:27.994Z,11.37
2019-04-10T02:08:58.277Z,12.03
2019-04-10T02:11:28.074Z,11.90
2019-04-10T02:13:58.259Z,11.70
2019-04-10T02:16:28.034Z,11.57
2019-04-10T02:18:59.670Z,11.80
2019-04-10T02:21:30.156Z,11.87
2019-04-10T02:24:01.152Z,11.30
2019-04-10T02:26:33.851Z,11.60
2019-04-10T02:29:03.809Z,10.67
2019-04-10T02:31:34.305Z,11.07
2019-04-10T02:34:04.837Z,9.03
2019-04-10T02:36:36.208Z,10.00
2019-04-10T02:39:17.633Z,10.67
2019-04-10T02:41:38.673Z,9.77
2019-04-10T02:44:08.123Z,9.27
2019-04-10T02:46:38.742Z,8.83
2019-04-10T02:49:08.343Z,9.03
2019-04-10T02:51:38.884Z,9.37
2019-04-10T02:54:09.397Z,10.37
2019-04-10T02:56:40.826Z,10.17
2019-04-10T02:59:11.238Z,9.37
2019-04-10T03:01:41.660Z,10.10
2019-04-10T03:04:11.871Z,9.70
2019-04-10T03:06:42.803Z,9.47
2019-04-10T03:09:30.803Z,9.43
2019-04-10T03:11:43.925Z,9.77
2019-04-10T03:14:14.766Z,7.27
2019-04-10T03:16:47.905Z,9.50
2019-04-10T03:19:17.279Z,8.07
2019-04-10T03:21:49.197Z,8.63
2019-04-10T03:24:19.153Z,8.40
2019-04-10T03:26:52.059Z,8.87
2019-04-10T03:29:21.989Z,7.37
2019-04-10T03:31:52.962Z,7.63
2019-04-10T03:34:28.205Z,7.77
2019-04-10T03:36:56.333Z,6.93
2019-04-10T03:39:25.793Z,6.77
2019-04-10T03:41:55.072Z,7.23
2019-04-10T03:44:24.992Z,7.10
2019-04-10T03:46:56.010Z,6.30
2019-04-10T03:49:25.563Z,6.67
2019-04-10T03:51:57.312Z,6.63
2019-04-10T03:54:26.496Z,6.53
2019-04-10T03:56:56.236Z,6.80
2019-04-10T03:59:26.410Z,6.53
2019-04-10T04:01:55.729Z,6.37
2019-04-10T04:04:25.799Z,5.53
2019-04-10T04:06:55.774Z,6.47
2019-04-10T04:09:32.106Z,6.13
2019-04-10T04:12:02.313Z,5.47
2019-04-10T04:14:34.611Z,6.07
2019-04-10T04:17:06.096Z,6.30
2019-04-10T04:19:35.327Z,5.90
2019-04-10T04:22:04.500Z,5.13
2019-04-10T04:24:33.707Z,5.27
2019-04-10T04:27:02.899Z,5.20
2019-04-10T04:29:32.476Z,5.63
2019-04-10T04:32:01.911Z,5.30
2019-04-10T04:34:31.308Z,5.37
2019-04-10T04:37:02.356Z,5.87
2019-04-10T04:39:32.933Z,5.07
2019-04-10T04:42:07.130Z,4.77
2019-04-10T04:44:39.624Z,4.83
2019-04-10T04:47:10.104Z,5.00
2019-04-10T04:49:39.818Z,4.30
2019-04-10T04:52:11.392Z,4.90
2019-04-10T04:54:44.092Z,3.67
2019-04-10T04:57:13.222Z,4.40
2019-04-10T04:59:45.056Z,4.90
2019-04-10T05:02:14.406Z,5.23
2019-04-10T05:04:46.814Z,5.13
2019-04-10T05:07:17.272Z,4.90
2019-04-10T05:09:46.487Z,4.70
2019-04-10T05:12:18.057Z,4.90
2019-04-10T05:14:48.165Z,4.83
2019-04-10T05:17:18.331Z,4.97
2019-04-10T05:19:48.125Z,4.10
2019-04-10T05:22:17.317Z,5.37
2019-04-10T05:24:46.746Z,4.70
2019-04-10T05:27:16.125Z,5.23
2019-04-10T05:29:45.407Z,4.50
2019-04-10T05:32:15.869Z,4.60
2019-04-10T05:34:45.203Z,4.23
2019-04-10T05:37:14.334Z,4.17
2019-04-10T05:39:49.173Z,6.00
2019-04-10T05:42:14.756Z,5.07
2019-04-10T05:44:44.512Z,3.80
2019-04-10T05:47:15.268Z,5.43
2019-04-10T05:49:47.117Z,4.27
2019-04-10T05:52:16.426Z,4.97
2019-04-10T05:54:45.669Z,6.50
2019-04-10T05:57:16.260Z,5.27
2019-04-10T05:59:45.905Z,5.50
2019-04-10T06:02:17.853Z,5.90
2019-04-10T06:04:49.663Z,5.70
2019-04-10T06:07:19.686Z,5.60
2019-04-10T06:09:55.843Z,4.50
2019-04-10T06:12:20.361Z,5.23
2019-04-10T06:14:50.494Z,4.17
2019-04-10T06:17:20.587Z,5.03
2019-04-10T06:19:50.965Z,5.27
2019-04-10T06:22:20.796Z,4.67
2019-04-10T06:24:52.420Z,5.23
2019-04-10T06:27:22.541Z,5.63
2019-04-10T06:30:00.185Z,5.20
2019-04-10T06:32:29.637Z,6.03
2019-04-10T06:34:59.575Z,4.37
2019-04-10T06:37:32.515Z,3.63
2019-04-10T06:40:17.072Z,3.27
2019-04-10T06:42:46.219Z,3.77
2019-04-10T06:45:09.081Z,4.80
2019-04-10T06:47:40.997Z,4.07
2019-04-10T06:50:10.656Z,4.27
2019-04-10T06:52:40.941Z,3.17
2019-04-10T06:55:11.539Z,3.93
2019-04-10T06:57:49.938Z,4.03
2019-04-10T07:00:18.442Z,4.00
2019-04-10T07:03:10.584Z,3.80
2019-04-10T07:05:59.895Z,4.40
2019-04-10T07:08:19.366Z,4.00
2019-04-10T07:10:56.191Z,2.93
2019-04-10T07:13:20.399Z,2.57
2019-04-10T07:15:54.416Z,3.47
2019-04-10T07:18:24.309Z,3.40
2019-04-10T07:20:59.280Z,2.93
2019-04-10T07:23:28.880Z,4.20
2019-04-10T07:25:58.347Z,4.70
2019-04-10T07:28:29.837Z,4.07
2019-04-10T07:31:04.674Z,3.40
2019-04-10T07:33:31.539Z,4.10
2019-04-10T07:36:04.300Z,4.60
2019-04-10T07:38:35.834Z,4.37
2019-04-10T07:41:13.737Z,4.33
2019-04-10T07:43:38.625Z,4.13
2019-04-10T07:46:08.290Z,4.20
2019-04-10T07:48:46.544Z,4.50
2019-04-10T07:51:16.933Z,2.53
2019-04-10T07:53:46.989Z,3.07
2019-04-10T07:56:20.713Z,4.80
2019-04-10T07:58:50.049Z,4.77
2019-04-10T08:01:19.262Z,4.40
2019-04-10T08:03:55.695Z,4.60
2019-04-10T08:06:25.652Z,4.93
2019-04-10T08:08:55.493Z,3.73
2019-04-10T08:11:29.699Z,6.10
2019-04-10T08:13:58.803Z,5.23
2019-04-10T08:16:27.947Z,2.90
2019-04-10T08:18:57.353Z,4.97
2019-04-10T08:21:27.346Z,4.83
2019-04-10T08:23:56.662Z,4.50
2019-04-10T08:26:25.807Z,4.20
2019-04-10T08:28:57.255Z,5.03
2019-04-10T08:31:26.499Z,5.20
2019-04-10T08:33:56.803Z,4.80
2019-04-10T08:36:26.164Z,4.70
2019-04-10T08:38:55.767Z,3.97
2019-04-10T08:41:27.085Z,4.90
2019-04-10T08:43:56.814Z,4.47
2019-04-10T08:46:26.161Z,5.80
2019-04-10T08:48:56.004Z,4.93
2019-04-10T08:51:25.642Z,5.43
2019-04-10T08:53:56.668Z,5.10
2019-04-10T08:56:26.006Z,4.77
2019-04-10T08:58:57.234Z,4.40
2019-04-10T09:01:26.490Z,5.37
2019-04-10T09:03:55.772Z,5.00
2019-04-10T09:06:25.203Z,4.70
2019-04-10T09:08:54.611Z,4.70
2019-04-10T09:11:29.498Z,4.73
2019-04-10T09:13:58.900Z,4.80
2019-04-10T09:16:28.839Z,6.03
2019-04-10T09:18:58.003Z,5.23
2019-04-10T09:21:28.123Z,4.80
2019-04-10T09:23:58.939Z,5.33
2019-04-10T09:26:30.647Z,4.60
2019-04-10T09:28:59.927Z,5.47
2019-04-10T09:31:29.449Z,4.53
2019-04-10T09:33:59.221Z,4.47
2019-04-10T09:36:29.148Z,5.17
2019-04-10T09:38:59.090Z,5.70
2019-04-10T09:41:29.814Z,5.40
2019-04-10T09:44:00.388Z,4.33
2019-04-10T09:46:31.053Z,5.40
2019-04-10T09:49:05.426Z,5.50
2019-04-10T09:51:34.479Z,5.43
2019-04-10T09:54:03.748Z,5.33
2019-04-10T09:56:32.996Z,5.10
2019-04-10T09:59:02.178Z,5.50
2019-04-10T10:01:31.382Z,5.37
2019-04-10T10:04:01.273Z,4.83
2019-04-10T10:06:34.525Z,5.47
2019-04-10T10:09:01.524Z,4.90
2019-04-10T10:11:30.840Z,4.50
2019-04-10T10:14:00.122Z,4.90
2019-04-10T10:16:31.632Z,4.93
2019-04-10T10:19:02.666Z,5.57
2019-04-10T10:21:32.474Z,5.33
2019-04-10T10:24:02.450Z,5.20
2019-04-10T10:26:34.487Z,5.63
2019-04-10T10:29:04.749Z,3.80
2019-04-10T10:31:34.110Z,5.17
2019-04-10T10:34:03.882Z,5.30
2019-04-10T10:36:39.135Z,4.90
2019-04-10T10:39:11.109Z,5.63
2019-04-10T10:41:36.913Z,5.23
2019-04-10T10:44:07.471Z,5.47
2019-04-10T10:46:37.659Z,4.07
2019-04-10T10:49:06.989Z,5.23
2019-04-10T10:51:40.405Z,5.40
2019-04-10T10:54:13.243Z,5.67
2019-04-10T10:56:42.643Z,5.70
2019-04-10T10:59:12.000Z,4.83
2019-04-10T11:01:42.147Z,4.33
2019-04-10T11:04:11.329Z,5.43
2019-04-10T11:06:54.359Z,4.57
2019-04-10T11:09:18.204Z,5.10
2019-04-10T11:11:47.472Z,4.60
2019-04-10T11:14:17.786Z,5.87
2019-04-10T11:16:47.410Z,5.23
2019-04-10T11:19:17.278Z,5.00
2019-04-10T11:21:47.072Z,5.13
2019-04-10T11:24:17.271Z,5.20
2019-04-10T11:26:46.566Z,4.90
2019-04-10T11:29:17.469Z,5.23
2019-04-10T11:31:47.036Z,4.83
2019-04-10T11:34:17.806Z,4.70
2019-04-10T11:36:48.751Z,4.53
2019-04-10T11:39:25.391Z,4.60
2019-04-10T11:41:50.428Z,4.17
2019-04-10T11:44:21.667Z,3.73
2019-04-10T11:46:52.663Z,4.13
2019-04-10T11:49:23.048Z,4.33
2019-04-10T11:51:55.794Z,4.50
2019-04-10T11:54:26.935Z,4.73
2019-04-10T11:56:58.712Z,4.17
2019-04-10T11:59:28.962Z,3.93
2019-04-10T12:02:02.824Z,4.43
2019-04-10T12:04:33.517Z,3.83
2019-04-10T12:07:02.085Z,4.20
2019-04-10T12:10:49.398Z,4.70
2019-04-10T12:12:02.110Z,4.30
2019-04-10T12:14:31.921Z,4.03
2019-04-10T12:17:01.393Z,3.40
2019-04-10T12:19:31.159Z,4.07
2019-04-10T12:22:00.356Z,4.00
2019-04-10T12:24:32.251Z,4.13
2019-04-10T12:27:02.414Z,3.93
2019-04-10T12:29:32.912Z,2.73
2019-04-10T12:32:02.328Z,3.83
2019-04-10T12:34:32.137Z,3.50
2019-04-10T12:37:04.664Z,3.37
2019-04-10T12:39:34.347Z,3.37
2019-04-10T12:42:03.795Z,3.50
2019-04-10T12:44:33.787Z,3.87
2019-04-10T12:47:04.202Z,3.40
2019-04-10T12:49:33.904Z,3.37
2019-04-10T12:52:05.950Z,3.50
2019-04-10T12:54:35.584Z,3.33
2019-04-10T12:57:07.964Z,3.40
2019-04-10T12:59:41.637Z,3.50
2019-04-10T13:02:12.401Z,3.80
2019-04-10T13:04:47.052Z,2.87
2019-04-10T13:07:16.295Z,3.20
2019-04-10T13:09:47.052Z,3.00
2019-04-10T13:12:17.311Z,3.43
2019-04-10T13:14:46.715Z,3.03
2019-04-10T13:17:16.532Z,3.77
2019-04-10T13:19:45.851Z,3.67
2019-04-10T13:22:15.942Z,4.03
2019-04-10T13:24:46.397Z,3.50
2019-04-10T13:27:18.994Z,3.63
2019-04-10T13:30:00.677Z,3.47
2019-04-10T13:32:32.747Z,4.10
2019-04-10T13:35:01.993Z,3.27
2019-04-10T13:37:33.757Z,2.60
2019-04-10T13:40:03.536Z,3.17
2019-04-10T13:42:37.034Z,3.10
2019-04-10T13:45:07.967Z,3.30
2019-04-10T13:47:37.265Z,3.73
2019-04-10T13:50:06.828Z,3.63
2019-04-10T13:52:38.524Z,2.97
2019-04-10T13:55:10.217Z,3.03
2019-04-10T13:57:40.204Z,3.73
2019-04-10T14:00:17.560Z,3.40
2019-04-10T14:02:47.848Z,3.43
2019-04-10T14:05:18.101Z,3.13
2019-04-10T14:07:47.265Z,2.90
2019-04-10T14:10:17.004Z,2.90
2019-04-10T14:12:47.195Z,2.70
2019-04-10T14:15:16.538Z,3.13
2019-04-10T14:17:45.980Z,3.10
2019-04-10T14:20:20.151Z,2.77
2019-04-10T14:22:55.706Z,2.80
2019-04-10T14:25:32.547Z,3.03
2019-04-10T14:28:06.961Z,2.93
2019-04-10T14:30:39.739Z,2.37
2019-04-10T14:33:09.148Z,2.33
2019-04-10T14:35:41.909Z,2.60
2019-04-10T14:38:12.337Z,2.40
2019-04-10T14:40:42.123Z,1.97
2019-04-10T14:43:12.414Z,2.70
2019-04-10T14:45:43.996Z,2.57
2019-04-10T14:48:14.090Z,2.67
2019-04-10T14:50:44.224Z,2.70
2019-04-10T14:53:13.910Z,2.50
2019-04-10T14:55:43.922Z,2.50
2019-04-10T14:58:20.514Z,2.70
2019-04-10T15:00:52.959Z,2.30
2019-04-10T15:03:22.588Z,2.53
2019-04-10T15:05:55.326Z,2.57
2019-04-10T15:08:25.964Z,2.70
2019-04-10T15:10:55.488Z,2.60
2019-04-10T15:13:25.768Z,2.50
2019-04-10T15:15:56.722Z,2.83
2019-04-10T15:18:26.772Z,2.67
2019-04-10T15:20:56.972Z,2.30
2019-04-10T15:23:28.213Z,2.10
2019-04-10T15:25:57.598Z,2.40
2019-04-10T15:28:27.444Z,2.30
2019-04-10T15:30:59.932Z,2.50
2019-04-10T15:33:29.193Z,2.40
2019-04-10T15:35:59.781Z,2.20
2019-04-10T15:38:30.366Z,2.87
2019-04-10T15:41:08.478Z,2.40
2019-04-10T15:43:38.129Z,2.53
2019-04-10T15:46:08.762Z,2.40
2019-04-10T15:48:44.190Z,2.70
2019-04-10T15:51:22.747Z,2.30
2019-04-10T15:53:53.321Z,2.23
2019-04-10T15:56:25.705Z,2.23
2019-04-10T15:58:55.632Z,2.00
2019-04-10T16:01:48.966Z,2.40
2019-04-10T16:04:19.128Z,2.33
2019-04-10T16:06:49.239Z,2.57
2019-04-10T16:09:19.052Z,2.50
2019-04-10T16:14:48.609Z,2.87
2019-04-10T16:17:39.692Z,2.40
2019-04-10T16:20:29.826Z,2.30
2019-04-10T16:23:10.066Z,2.77
2019-04-10T16:25:52.381Z,2.13
2019-04-10T16:28:25.100Z,2.43
2019-04-10T16:30:55.562Z,2.20
2019-04-10T16:33:27.358Z,1.90
2019-04-10T16:36:01.020Z,2.30
2019-04-10T16:38:33.088Z,1.93
2019-04-10T16:41:03.031Z,2.40
2019-04-10T16:43:33.778Z,2.00
2019-04-10T16:46:04.910Z,1.80
2019-04-10T16:48:37.513Z,1.97
2019-04-10T16:51:10.075Z,2.10
2019-04-10T16:53:39.428Z,1.90
2019-04-10T16:56:13.626Z,1.70
2019-04-10T16:58:47.966Z,1.73
2019-04-10T17:01:23.768Z,1.80
2019-04-10T17:03:56.655Z,2.03
2019-04-10T17:06:26.154Z,2.30
2019-04-10T17:08:56.774Z,2.23
2019-04-10T17:11:27.106Z,1.97
2019-04-10T17:13:57.175Z,1.80
2019-04-10T17:16:26.934Z,2.10
2019-04-10T17:18:57.142Z,2.20
2019-04-10T17:21:30.751Z,2.30
2019-04-10T17:24:05.362Z,2.37
2019-04-10T17:26:37.559Z,2.47
2019-04-10T17:29:07.112Z,2.40
2019-04-10T17:31:36.482Z,2.33
2019-04-10T17:34:06.244Z,3.07
2019-04-10T17:36:36.883Z,2.73
2019-04-10T17:39:11.112Z,2.67
2019-04-10T17:41:41.789Z,1.93
2019-04-10T17:44:11.836Z,2.50
2019-04-10T17:46:43.726Z,2.57
2019-04-10T17:49:13.284Z,2.80
2019-04-10T17:51:42.401Z,2.80
2019-04-10T17:54:15.292Z,2.10
2019-04-10T17:56:44.569Z,2.40
2019-04-10T17:59:16.271Z,2.93
2019-04-10T18:01:45.728Z,2.63
2019-04-10T18:04:15.960Z,2.43
2019-04-10T18:06:48.435Z,2.47
2019-04-10T18:09:17.946Z,2.60
2019-04-10T18:11:47.716Z,2.27
2019-04-10T18:14:19.234Z,2.47
2019-04-10T18:16:49.909Z,1.20
2019-04-10T18:19:19.146Z,1.80
2019-04-10T18:21:49.876Z,2.37
2019-04-10T18:24:20.354Z,2.10
2019-04-10T18:26:53.798Z,1.60
2019-04-10T18:31:53.606Z,3.20
2019-04-10T18:34:22.754Z,1.60
2019-04-10T18:36:56.525Z,1.73
2019-04-10T18:39:26.173Z,1.70
2019-04-10T18:41:59.332Z,1.60
2019-04-10T18:44:31.132Z,1.67
2019-04-10T18:47:00.828Z,2.07
2019-04-10T18:49:34.291Z,1.50
2019-04-10T18:52:07.450Z,1.20
2019-04-10T18:54:37.048Z,2.20
2019-04-10T18:57:07.388Z,1.70
2019-04-10T18:59:51.474Z,1.87
2019-04-10T19:02:39.155Z,2.83
2019-04-10T19:05:16.349Z,1.60
2019-04-10T19:07:46.231Z,1.87
2019-04-10T19:10:15.818Z,2.07
2019-04-10T19:12:48.769Z,1.90
2019-04-10T19:15:18.423Z,1.70
2019-04-10T19:17:48.758Z,1.43
2019-04-10T19:20:18.632Z,1.77
2019-04-10T19:22:48.692Z,1.90
2019-04-10T19:25:18.988Z,1.80
2019-04-10T19:27:50.651Z,2.20
2019-04-10T19:30:35.305Z,2.10
2019-04-10T19:33:06.265Z,2.57
2019-04-10T19:35:37.748Z,2.07
2019-04-10T19:38:09.243Z,1.20
2019-04-10T19:40:41.168Z,2.33
2019-04-10T19:43:13.730Z,2.00
2019-04-10T19:45:45.505Z,1.80
2019-04-10T19:48:15.141Z,2.20
2019-04-10T19:50:45.668Z,1.83
2019-04-10T19:53:17.133Z,2.13
2019-04-10T19:55:46.414Z,1.10
2019-04-10T19:58:17.906Z,2.63
2019-04-10T20:00:49.173Z,2.73
2019-04-10T20:03:20.286Z,2.20
2019-04-10T20:05:53.904Z,2.17
2019-04-10T20:08:24.085Z,2.47
2019-04-10T20:10:53.339Z,11.27
2019-04-10T20:15:55.795Z,3.27
2019-04-10T20:18:25.141Z,3.00
2019-04-10T20:20:55.480Z,2.97
2019-04-10T20:23:27.889Z,2.90
2019-04-10T20:25:58.759Z,3.03
2019-04-10T20:28:28.885Z,3.20
2019-04-10T20:30:59.495Z,3.07
2019-04-10T20:33:30.446Z,3.33
2019-04-10T20:36:03.262Z,2.70
2019-04-10T20:38:33.456Z,3.13
2019-04-10T20:41:06.591Z,2.77
2019-04-10T20:43:37.246Z,3.30
2019-04-10T20:46:11.981Z,3.07
2019-04-10T20:48:41.400Z,2.43
2019-04-10T20:51:10.616Z,2.80
2019-04-10T20:53:44.233Z,2.90
2019-04-10T20:56:16.852Z,3.00
2019-04-10T20:58:49.118Z,3.33
2019-04-10T21:01:20.286Z,3.20
2019-04-10T21:03:50.228Z,3.20
2019-04-10T21:06:19.347Z,3.50
2019-04-10T21:08:50.220Z,3.17
2019-04-10T21:11:21.067Z,3.27
2019-04-10T21:13:54.500Z,2.80
2019-04-10T21:16:23.862Z,3.37
2019-04-10T21:18:53.886Z,3.17
2019-04-10T21:21:24.271Z,3.40
2019-04-10T21:23:54.283Z,3.30
2019-04-10T21:26:23.987Z,3.30
2019-04-10T21:30:07.168Z,3.53
2019-04-10T21:33:00.179Z,3.43
2019-04-10T21:35:34.992Z,3.67
2019-04-10T21:38:07.491Z,4.07
2019-04-10T21:40:36.946Z,3.70
2019-04-10T21:43:07.302Z,3.27
2019-04-10T21:45:36.675Z,4.43
2019-04-10T21:48:08.592Z,3.87
2019-04-10T21:50:41.810Z,3.33
2019-04-10T21:53:11.952Z,3.70
2019-04-10T21:55:41.723Z,3.43
2019-04-10T21:58:13.072Z,3.80
2019-04-10T22:01:01.441Z,3.83
2019-04-10T22:03:31.720Z,3.80
2019-04-10T22:06:19.856Z,3.83
2019-04-10T22:08:56.160Z,4.07
2019-04-10T22:11:25.766Z,3.87
2019-04-10T22:13:56.892Z,3.13
2019-04-10T22:16:28.167Z,4.10
2019-04-10T22:18:58.171Z,4.07
2019-04-10T22:21:29.818Z,4.93
2019-04-10T22:24:01.180Z,3.93
2019-04-10T22:26:30.266Z,3.80
2019-04-10T22:28:59.528Z,4.53
2019-04-10T22:31:28.941Z,4.07
2019-04-10T22:33:58.441Z,2.00
2019-04-10T22:36:31.140Z,3.97
2019-04-10T22:39:01.118Z,4.60
2019-04-10T22:41:32.324Z,4.23
2019-04-10T22:44:03.312Z,3.73
2019-04-10T22:46:32.611Z,4.50
2019-04-10T22:49:04.228Z,4.10
2019-04-10T22:51:33.451Z,3.50
2019-04-10T22:54:04.641Z,4.00
2019-04-10T22:56:35.933Z,3.27
2019-04-10T22:59:06.024Z,3.70
2019-04-10T23:01:35.485Z,3.10
2019-04-10T23:04:08.012Z,4.17
2019-04-10T23:06:39.554Z,2.40
2019-04-10T23:09:11.773Z,3.60
2019-04-10T23:11:43.484Z,3.47
2019-04-10T23:14:12.395Z,3.33
2019-04-10T23:16:42.137Z,4.13
2019-04-10T23:19:14.602Z,3.53
2019-04-10T23:21:44.954Z,4.53
2019-04-10T23:24:14.222Z,4.03
2019-04-10T23:26:43.675Z,4.63
2019-04-10T23:29:13.920Z,3.87
2019-04-10T23:31:43.332Z,3.60
2019-04-10T23:34:14.614Z,4.17
2019-04-10T23:36:44.442Z,3.97
2019-04-10T23:39:14.230Z,4.53
2019-04-10T23:41:45.513Z,4.20
2019-04-10T23:44:16.427Z,3.80
2019-04-10T23:46:45.665Z,4.37
2019-04-10T23:49:14.846Z,3.97
2019-04-10T23:51:45.403Z,2.53
2019-04-10T23:54:15.213Z,4.40
2019-04-10T23:56:49.046Z,4.90
2019-04-10T23:59:20.520Z,4.47
